sensor_id;sensor_type;location;lat;lon;timestamp;P1;durP1;ratioP1;P2;durP2;ratioP2
50319;SDS011;36226;53.464;9.852;2022-08-01T00:01:52;17.35;;;15.15;;
50319;SDS011;36226;53.464;9.852;2022-08-01T00:04:18;19.65;;;14.88;;
50319;SDS011;36226;53.464;9.852;2022-08-01T00:06:43;16.77;;;14.63;;
50319;SDS011;36226;53.464;9.852;2022-08-01T00:09:08;17.77;;;14.48;;
50319;SDS011;36226;53.464;9.852;2022-08-01T00:11:34;18.35;;;14.05;;
50319;SDS011;36226;53.464;9.852;2022-08-01T00:13:59;21.48;;;14.40;;
50319;SDS011;36226;53.464;9.852;2022-08-01T00:16:24;16.50;;;13.45;;
50319;SDS011;36226;53.464;9.852;2022-08-01T00:18:50;15.30;;;12.40;;
50319;SDS011;36226;53.464;9.852;2022-08-01T00:21:16;18.33;;;13.32;;
50319;SDS011;36226;53.464;9.852;2022-08-01T00:23:42;18.80;;;13.50;;
50319;SDS011;36226;53.464;9.852;2022-08-01T00:26:07;17.38;;;12.88;;
50319;SDS011;36226;53.464;9.852;2022-08-01T00:28:33;17.00;;;13.57;;
50319;SDS011;36226;53.464;9.852;2022-08-01T00:30:58;15.07;;;12.60;;
50319;SDS011;36226;53.464;9.852;2022-08-01T00:33:23;17.85;;;13.02;;
50319;SDS011;36226;53.464;9.852;2022-08-01T00:35:49;17.10;;;13.80;;
50319;SDS011;36226;53.464;9.852;2022-08-01T00:38:14;15.63;;;13.48;;
50319;SDS011;36226;53.464;9.852;2022-08-01T00:40:39;16.35;;;13.18;;
50319;SDS011;36226;53.464;9.852;2022-08-01T00:43:05;20.50;;;13.40;;
50319;SDS011;36226;53.464;9.852;2022-08-01T00:45:30;15.40;;;11.88;;
50319;SDS011;36226;53.464;9.852;2022-08-01T00:47:55;15.18;;;12.45;;
50319;SDS011;36226;53.464;9.852;2022-08-01T00:50:21;14.65;;;11.75;;
50319;SDS011;36226;53.464;9.852;2022-08-01T00:52:46;16.58;;;12.63;;
50319;SDS011;36226;53.464;9.852;2022-08-01T00:55:12;16.77;;;12.63;;
50319;SDS011;36226;53.464;9.852;2022-08-01T00:57:37;17.42;;;12.85;;
50319;SDS011;36226;53.464;9.852;2022-08-01T01:00:04;19.55;;;13.18;;
50319;SDS011;36226;53.464;9.852;2022-08-01T01:02:30;15.82;;;12.68;;
50319;SDS011;36226;53.464;9.852;2022-08-01T01:04:56;16.90;;;11.23;;
50319;SDS011;36226;53.464;9.852;2022-08-01T01:07:25;12.80;;;10.15;;
50319;SDS011;36226;53.464;9.852;2022-08-01T01:12:42;13.18;;;9.85;;
50319;SDS011;36226;53.464;9.852;2022-08-01T01:15:17;17.67;;;10.75;;
50319;SDS011;36226;53.464;9.852;2022-08-01T01:20:49;14.93;;;10.98;;
50319;SDS011;36226;53.464;9.852;2022-08-01T01:23:34;15.20;;;11.07;;
50319;SDS011;36226;53.464;9.852;2022-08-01T01:26:15;16.10;;;11.18;;
50319;SDS011;36226;53.464;9.852;2022-08-01T01:29:00;16.42;;;11.27;;
50319;SDS011;36226;53.464;9.852;2022-08-01T01:31:28;16.77;;;11.00;;
50319;SDS011;36226;53.464;9.852;2022-08-01T01:33:56;14.05;;;10.80;;
50319;SDS011;36226;53.464;9.852;2022-08-01T01:36:22;17.33;;;10.38;;
50319;SDS011;36226;53.464;9.852;2022-08-01T01:38:49;13.05;;;10.25;;
50319;SDS011;36226;53.464;9.852;2022-08-01T01:41:16;15.52;;;10.85;;
50319;SDS011;36226;53.464;9.852;2022-08-01T01:43:42;13.82;;;10.07;;
50319;SDS011;36226;53.464;9.852;2022-08-01T01:46:09;12.40;;;9.45;;
50319;SDS011;36226;53.464;9.852;2022-08-01T01:48:36;14.32;;;10.00;;
50319;SDS011;36226;53.464;9.852;2022-08-01T01:51:03;12.68;;;9.30;;
50319;SDS011;36226;53.464;9.852;2022-08-01T01:53:28;13.13;;;9.52;;
50319;SDS011;36226;53.464;9.852;2022-08-01T01:55:56;12.25;;;9.70;;
50319;SDS011;36226;53.464;9.852;2022-08-01T01:58:23;10.98;;;9.32;;
50319;SDS011;36226;53.464;9.852;2022-08-01T02:00:49;12.05;;;8.93;;
50319;SDS011;36226;53.464;9.852;2022-08-01T02:03:17;12.93;;;9.13;;
50319;SDS011;36226;53.464;9.852;2022-08-01T02:05:43;15.38;;;8.10;;
50319;SDS011;36226;53.464;9.852;2022-08-01T02:08:09;13.25;;;8.80;;
50319;SDS011;36226;53.464;9.852;2022-08-01T02:10:35;12.38;;;8.75;;
50319;SDS011;36226;53.464;9.852;2022-08-01T02:13:03;12.50;;;9.10;;
50319;SDS011;36226;53.464;9.852;2022-08-01T02:15:32;10.88;;;8.68;;
50319;SDS011;36226;53.464;9.852;2022-08-01T02:17:59;10.40;;;7.93;;
50319;SDS011;36226;53.464;9.852;2022-08-01T02:20:29;12.35;;;8.50;;
50319;SDS011;36226;53.464;9.852;2022-08-01T02:22:56;11.20;;;8.57;;
50319;SDS011;36226;53.464;9.852;2022-08-01T02:25:31;11.57;;;8.30;;
50319;SDS011;36226;53.464;9.852;2022-08-01T02:28:01;11.75;;;8.68;;
50319;SDS011;36226;53.464;9.852;2022-08-01T02:30:31;12.55;;;8.65;;
50319;SDS011;36226;53.464;9.852;2022-08-01T02:33:02;11.38;;;8.10;;
50319;SDS011;36226;53.464;9.852;2022-08-01T02:35:30;12.35;;;8.85;;
50319;SDS011;36226;53.464;9.852;2022-08-01T02:37:57;10.18;;;8.30;;
50319;SDS011;36226;53.464;9.852;2022-08-01T02:40:24;13.07;;;9.63;;
50319;SDS011;36226;53.464;9.852;2022-08-01T02:42:52;11.18;;;7.68;;
50319;SDS011;36226;53.464;9.852;2022-08-01T02:45:20;14.30;;;8.15;;
50319;SDS011;36226;53.464;9.852;2022-08-01T02:47:48;9.48;;;7.85;;
50319;SDS011;36226;53.464;9.852;2022-08-01T02:50:15;12.38;;;8.70;;
50319;SDS011;36226;53.464;9.852;2022-08-01T02:52:41;10.27;;;8.20;;
50319;SDS011;36226;53.464;9.852;2022-08-01T02:55:09;10.77;;;8.20;;
50319;SDS011;36226;53.464;9.852;2022-08-01T02:57:35;9.82;;;7.88;;
50319;SDS011;36226;53.464;9.852;2022-08-01T03:00:03;11.27;;;8.68;;
50319;SDS011;36226;53.464;9.852;2022-08-01T03:02:30;11.50;;;7.78;;
50319;SDS011;36226;53.464;9.852;2022-08-01T03:04:56;11.65;;;7.30;;
50319;SDS011;36226;53.464;9.852;2022-08-01T03:07:22;8.13;;;6.50;;
50319;SDS011;36226;53.464;9.852;2022-08-01T03:09:48;12.38;;;6.68;;
50319;SDS011;36226;53.464;9.852;2022-08-01T03:12:15;7.85;;;6.57;;
50319;SDS011;36226;53.464;9.852;2022-08-01T03:14:43;9.48;;;7.05;;
50319;SDS011;36226;53.464;9.852;2022-08-01T03:17:09;7.10;;;6.20;;
50319;SDS011;36226;53.464;9.852;2022-08-01T03:19:36;9.48;;;6.97;;
50319;SDS011;36226;53.464;9.852;2022-08-01T03:22:05;10.73;;;6.60;;
50319;SDS011;36226;53.464;9.852;2022-08-01T03:24:31;11.45;;;5.75;;
50319;SDS011;36226;53.464;9.852;2022-08-01T03:26:57;10.27;;;6.05;;
50319;SDS011;36226;53.464;9.852;2022-08-01T03:29:24;7.93;;;5.57;;
50319;SDS011;36226;53.464;9.852;2022-08-01T03:31:50;7.75;;;5.85;;
50319;SDS011;36226;53.464;9.852;2022-08-01T03:34:16;8.55;;;5.75;;
50319;SDS011;36226;53.464;9.852;2022-08-01T03:37:19;8.15;;;5.95;;
50319;SDS011;36226;53.464;9.852;2022-08-01T03:42:30;7.78;;;5.57;;
50319;SDS011;36226;53.464;9.852;2022-08-01T03:44:58;7.75;;;5.85;;
50319;SDS011;36226;53.464;9.852;2022-08-01T03:47:29;8.45;;;5.68;;
50319;SDS011;36226;53.464;9.852;2022-08-01T03:49:56;6.50;;;5.05;;
50319;SDS011;36226;53.464;9.852;2022-08-01T03:52:22;6.50;;;4.78;;
50319;SDS011;36226;53.464;9.852;2022-08-01T03:54:50;9.75;;;4.95;;
50319;SDS011;36226;53.464;9.852;2022-08-01T03:57:16;10.70;;;5.45;;
50319;SDS011;36226;53.464;9.852;2022-08-01T03:59:42;9.20;;;4.90;;
50319;SDS011;36226;53.464;9.852;2022-08-01T04:02:08;7.53;;;4.75;;
50319;SDS011;36226;53.464;9.852;2022-08-01T04:04:34;6.35;;;4.80;;
50319;SDS011;36226;53.464;9.852;2022-08-01T04:06:59;8.10;;;4.90;;
50319;SDS011;36226;53.464;9.852;2022-08-01T04:09:29;6.55;;;4.45;;
50319;SDS011;36226;53.464;9.852;2022-08-01T04:11:56;5.82;;;4.53;;
50319;SDS011;36226;53.464;9.852;2022-08-01T04:14:22;5.90;;;4.03;;
50319;SDS011;36226;53.464;9.852;2022-08-01T04:16:47;5.28;;;4.18;;
50319;SDS011;36226;53.464;9.852;2022-08-01T04:19:13;6.03;;;3.60;;
50319;SDS011;36226;53.464;9.852;2022-08-01T04:21:38;4.70;;;3.45;;
50319;SDS011;36226;53.464;9.852;2022-08-01T04:24:21;4.22;;;3.35;;
50319;SDS011;36226;53.464;9.852;2022-08-01T04:26:48;4.63;;;2.95;;
50319;SDS011;36226;53.464;9.852;2022-08-01T04:29:15;3.78;;;3.35;;
50319;SDS011;36226;53.464;9.852;2022-08-01T04:31:42;3.90;;;2.47;;
50319;SDS011;36226;53.464;9.852;2022-08-01T04:34:09;6.32;;;2.97;;
50319;SDS011;36226;53.464;9.852;2022-08-01T04:36:36;4.75;;;3.10;;
50319;SDS011;36226;53.464;9.852;2022-08-01T04:39:02;3.08;;;2.60;;
50319;SDS011;36226;53.464;9.852;2022-08-01T04:41:30;3.20;;;2.47;;
50319;SDS011;36226;53.464;9.852;2022-08-01T04:43:55;9.52;;;2.70;;
50319;SDS011;36226;53.464;9.852;2022-08-01T04:46:24;3.28;;;2.70;;
50319;SDS011;36226;53.464;9.852;2022-08-01T04:48:49;4.43;;;3.00;;
50319;SDS011;36226;53.464;9.852;2022-08-01T04:51:16;4.03;;;2.83;;
50319;SDS011;36226;53.464;9.852;2022-08-01T04:53:42;5.03;;;2.70;;
50319;SDS011;36226;53.464;9.852;2022-08-01T04:56:10;6.00;;;3.33;;
50319;SDS011;36226;53.464;9.852;2022-08-01T04:58:38;3.70;;;3.03;;
50319;SDS011;36226;53.464;9.852;2022-08-01T05:01:04;3.83;;;3.00;;
50319;SDS011;36226;53.464;9.852;2022-08-01T05:03:30;3.40;;;3.10;;
50319;SDS011;36226;53.464;9.852;2022-08-01T05:05:55;4.32;;;3.00;;
50319;SDS011;36226;53.464;9.852;2022-08-01T05:08:20;3.95;;;2.83;;
50319;SDS011;36226;53.464;9.852;2022-08-01T05:10:46;3.92;;;3.28;;
50319;SDS011;36226;53.464;9.852;2022-08-01T05:13:11;4.28;;;3.40;;
50319;SDS011;36226;53.464;9.852;2022-08-01T05:15:40;4.00;;;3.50;;
50319;SDS011;36226;53.464;9.852;2022-08-01T05:18:06;3.67;;;3.10;;
50319;SDS011;36226;53.464;9.852;2022-08-01T05:20:31;4.85;;;3.40;;
50319;SDS011;36226;53.464;9.852;2022-08-01T05:22:57;4.28;;;3.33;;
50319;SDS011;36226;53.464;9.852;2022-08-01T05:25:22;6.97;;;3.75;;
50319;SDS011;36226;53.464;9.852;2022-08-01T05:27:48;6.43;;;3.70;;
50319;SDS011;36226;53.464;9.852;2022-08-01T05:30:14;3.72;;;3.33;;
50319;SDS011;36226;53.464;9.852;2022-08-01T05:32:39;4.03;;;3.38;;
50319;SDS011;36226;53.464;9.852;2022-08-01T05:35:06;4.53;;;2.75;;
50319;SDS011;36226;53.464;9.852;2022-08-01T05:37:32;6.82;;;2.97;;
50319;SDS011;36226;53.464;9.852;2022-08-01T05:39:57;3.53;;;2.70;;
50319;SDS011;36226;53.464;9.852;2022-08-01T05:42:23;3.28;;;2.10;;
50319;SDS011;36226;53.464;9.852;2022-08-01T05:44:48;3.42;;;2.40;;
50319;SDS011;36226;53.464;9.852;2022-08-01T05:47:14;6.82;;;2.58;;
50319;SDS011;36226;53.464;9.852;2022-08-01T05:49:40;3.88;;;2.42;;
50319;SDS011;36226;53.464;9.852;2022-08-01T05:52:05;4.72;;;2.42;;
50319;SDS011;36226;53.464;9.852;2022-08-01T05:54:31;3.67;;;2.25;;
50319;SDS011;36226;53.464;9.852;2022-08-01T05:56:56;4.35;;;2.10;;
50319;SDS011;36226;53.464;9.852;2022-08-01T05:59:24;5.90;;;2.35;;
50319;SDS011;36226;53.464;9.852;2022-08-01T06:01:50;6.53;;;2.60;;
50319;SDS011;36226;53.464;9.852;2022-08-01T06:04:15;5.68;;;2.05;;
50319;SDS011;36226;53.464;9.852;2022-08-01T06:06:41;8.30;;;2.70;;
50319;SDS011;36226;53.464;9.852;2022-08-01T06:09:06;4.95;;;2.45;;
50319;SDS011;36226;53.464;9.852;2022-08-01T06:11:31;6.13;;;2.33;;
50319;SDS011;36226;53.464;9.852;2022-08-01T06:13:57;6.22;;;2.75;;
50319;SDS011;36226;53.464;9.852;2022-08-01T06:16:22;4.65;;;2.50;;
50319;SDS011;36226;53.464;9.852;2022-08-01T06:18:48;6.57;;;2.53;;
50319;SDS011;36226;53.464;9.852;2022-08-01T06:21:13;7.90;;;2.72;;
50319;SDS011;36226;53.464;9.852;2022-08-01T06:23:38;6.07;;;2.60;;
50319;SDS011;36226;53.464;9.852;2022-08-01T06:26:06;7.00;;;2.45;;
50319;SDS011;36226;53.464;9.852;2022-08-01T06:28:31;7.82;;;2.72;;
50319;SDS011;36226;53.464;9.852;2022-08-01T06:30:56;6.68;;;2.60;;
50319;SDS011;36226;53.464;9.852;2022-08-01T06:33:24;5.43;;;2.67;;
50319;SDS011;36226;53.464;9.852;2022-08-01T06:35:49;7.32;;;2.75;;
50319;SDS011;36226;53.464;9.852;2022-08-01T06:38:14;6.78;;;2.63;;
50319;SDS011;36226;53.464;9.852;2022-08-01T06:40:40;7.80;;;2.70;;
50319;SDS011;36226;53.464;9.852;2022-08-01T06:43:05;8.25;;;2.75;;
50319;SDS011;36226;53.464;9.852;2022-08-01T06:45:30;9.82;;;2.58;;
50319;SDS011;36226;53.464;9.852;2022-08-01T06:47:56;10.38;;;2.65;;
50319;SDS011;36226;53.464;9.852;2022-08-01T06:50:21;8.52;;;2.55;;
50319;SDS011;36226;53.464;9.852;2022-08-01T06:52:46;10.07;;;3.08;;
50319;SDS011;36226;53.464;9.852;2022-08-01T06:55:12;7.20;;;2.58;;
50319;SDS011;36226;53.464;9.852;2022-08-01T06:57:44;9.57;;;2.50;;
50319;SDS011;36226;53.464;9.852;2022-08-01T07:00:14;7.38;;;2.70;;
50319;SDS011;36226;53.464;9.852;2022-08-01T07:02:41;10.60;;;2.78;;
50319;SDS011;36226;53.464;9.852;2022-08-01T07:05:07;5.43;;;2.50;;
50319;SDS011;36226;53.464;9.852;2022-08-01T07:07:32;9.35;;;3.00;;
50319;SDS011;36226;53.464;9.852;2022-08-01T07:09:58;8.68;;;2.38;;
50319;SDS011;36226;53.464;9.852;2022-08-01T07:12:23;7.78;;;2.40;;
50319;SDS011;36226;53.464;9.852;2022-08-01T07:14:48;9.63;;;2.20;;
50319;SDS011;36226;53.464;9.852;2022-08-01T07:17:13;7.97;;;2.25;;
50319;SDS011;36226;53.464;9.852;2022-08-01T07:19:39;6.82;;;2.28;;
50319;SDS011;36226;53.464;9.852;2022-08-01T07:22:04;9.93;;;2.40;;
50319;SDS011;36226;53.464;9.852;2022-08-01T07:24:29;7.20;;;2.60;;
50319;SDS011;36226;53.464;9.852;2022-08-01T07:26:55;10.10;;;2.55;;
50319;SDS011;36226;53.464;9.852;2022-08-01T07:29:25;8.18;;;3.03;;
50319;SDS011;36226;53.464;9.852;2022-08-01T07:31:52;10.13;;;3.20;;
50319;SDS011;36226;53.464;9.852;2022-08-01T07:34:18;14.68;;;3.35;;
50319;SDS011;36226;53.464;9.852;2022-08-01T07:36:43;17.65;;;3.90;;
50319;SDS011;36226;53.464;9.852;2022-08-01T07:39:09;16.00;;;4.05;;
50319;SDS011;36226;53.464;9.852;2022-08-01T07:41:34;13.85;;;3.75;;
50319;SDS011;36226;53.464;9.852;2022-08-01T07:43:59;16.20;;;3.90;;
50319;SDS011;36226;53.464;9.852;2022-08-01T07:46:24;17.33;;;3.72;;
50319;SDS011;36226;53.464;9.852;2022-08-01T07:48:50;16.23;;;4.80;;
50319;SDS011;36226;53.464;9.852;2022-08-01T07:51:15;17.20;;;4.93;;
50319;SDS011;36226;53.464;9.852;2022-08-01T07:53:40;12.82;;;3.80;;
50319;SDS011;36226;53.464;9.852;2022-08-01T07:56:06;16.90;;;3.90;;
50319;SDS011;36226;53.464;9.852;2022-08-01T07:58:32;13.30;;;3.75;;
50319;SDS011;36226;53.464;9.852;2022-08-01T08:00:58;17.20;;;3.90;;
50319;SDS011;36226;53.464;9.852;2022-08-01T08:03:23;15.02;;;3.72;;
50319;SDS011;36226;53.464;9.852;2022-08-01T08:05:48;15.38;;;4.03;;
50319;SDS011;36226;53.464;9.852;2022-08-01T08:08:14;16.58;;;3.80;;
50319;SDS011;36226;53.464;9.852;2022-08-01T08:10:40;13.07;;;4.20;;
50319;SDS011;36226;53.464;9.852;2022-08-01T08:13:06;17.10;;;3.75;;
50319;SDS011;36226;53.464;9.852;2022-08-01T08:15:31;12.35;;;2.92;;
50319;SDS011;36226;53.464;9.852;2022-08-01T08:17:56;10.75;;;3.22;;
50319;SDS011;36226;53.464;9.852;2022-08-01T08:20:22;14.00;;;3.95;;
50319;SDS011;36226;53.464;9.852;2022-08-01T08:22:50;15.32;;;2.80;;
50319;SDS011;36226;53.464;9.852;2022-08-01T08:25:16;12.15;;;3.30;;
50319;SDS011;36226;53.464;9.852;2022-08-01T08:27:42;8.63;;;2.67;;
50319;SDS011;36226;53.464;9.852;2022-08-01T08:30:08;10.43;;;2.92;;
50319;SDS011;36226;53.464;9.852;2022-08-01T08:32:34;10.70;;;2.78;;
50319;SDS011;36226;53.464;9.852;2022-08-01T08:35:00;9.30;;;2.60;;
50319;SDS011;36226;53.464;9.852;2022-08-01T08:37:25;6.78;;;2.42;;
50319;SDS011;36226;53.464;9.852;2022-08-01T08:39:50;10.98;;;3.10;;
50319;SDS011;36226;53.464;9.852;2022-08-01T08:42:16;9.25;;;2.70;;
50319;SDS011;36226;53.464;9.852;2022-08-01T08:44:41;11.90;;;3.13;;
50319;SDS011;36226;53.464;9.852;2022-08-01T08:47:07;10.07;;;2.65;;
50319;SDS011;36226;53.464;9.852;2022-08-01T08:49:36;12.00;;;2.97;;
50319;SDS011;36226;53.464;9.852;2022-08-01T08:52:02;10.48;;;2.72;;
50319;SDS011;36226;53.464;9.852;2022-08-01T08:54:28;11.65;;;2.55;;
50319;SDS011;36226;53.464;9.852;2022-08-01T08:56:54;15.45;;;2.83;;
50319;SDS011;36226;53.464;9.852;2022-08-01T08:59:20;9.82;;;2.70;;
50319;SDS011;36226;53.464;9.852;2022-08-01T09:01:46;12.13;;;3.20;;
50319;SDS011;36226;53.464;9.852;2022-08-01T09:04:12;8.70;;;2.38;;
50319;SDS011;36226;53.464;9.852;2022-08-01T09:06:38;10.73;;;2.92;;
50319;SDS011;36226;53.464;9.852;2022-08-01T09:09:04;16.50;;;2.88;;
50319;SDS011;36226;53.464;9.852;2022-08-01T09:11:30;14.38;;;2.90;;
50319;SDS011;36226;53.464;9.852;2022-08-01T09:14:13;10.95;;;2.67;;
50319;SDS011;36226;53.464;9.852;2022-08-01T09:16:58;9.88;;;2.95;;
50319;SDS011;36226;53.464;9.852;2022-08-01T09:19:38;12.52;;;3.15;;
50319;SDS011;36226;53.464;9.852;2022-08-01T09:22:05;12.57;;;3.17;;
50319;SDS011;36226;53.464;9.852;2022-08-01T09:24:32;12.77;;;3.05;;
50319;SDS011;36226;53.464;9.852;2022-08-01T09:26:58;13.40;;;3.33;;
50319;SDS011;36226;53.464;9.852;2022-08-01T09:29:33;11.10;;;2.88;;
50319;SDS011;36226;53.464;9.852;2022-08-01T09:31:58;9.10;;;2.25;;
50319;SDS011;36226;53.464;9.852;2022-08-01T09:34:30;6.90;;;2.13;;
50319;SDS011;36226;53.464;9.852;2022-08-01T09:36:57;12.77;;;3.15;;
50319;SDS011;36226;53.464;9.852;2022-08-01T09:41:48;8.10;;;2.45;;
50319;SDS011;36226;53.464;9.852;2022-08-01T09:44:14;8.88;;;2.28;;
50319;SDS011;36226;53.464;9.852;2022-08-01T09:46:53;8.63;;;2.55;;
50319;SDS011;36226;53.464;9.852;2022-08-01T09:49:32;9.75;;;3.03;;
50319;SDS011;36226;53.464;9.852;2022-08-01T09:52:10;8.35;;;2.25;;
50319;SDS011;36226;53.464;9.852;2022-08-01T09:54:41;10.05;;;2.67;;
50319;SDS011;36226;53.464;9.852;2022-08-01T09:57:14;10.10;;;2.58;;
50319;SDS011;36226;53.464;9.852;2022-08-01T09:59:44;9.57;;;2.60;;
50319;SDS011;36226;53.464;9.852;2022-08-01T10:02:12;5.63;;;1.90;;
50319;SDS011;36226;53.464;9.852;2022-08-01T10:04:50;11.25;;;2.35;;
50319;SDS011;36226;53.464;9.852;2022-08-01T10:07:16;10.82;;;2.20;;
50319;SDS011;36226;53.464;9.852;2022-08-01T10:09:43;8.15;;;1.83;;
50319;SDS011;36226;53.464;9.852;2022-08-01T10:12:09;10.80;;;1.83;;
50319;SDS011;36226;53.464;9.852;2022-08-01T10:14:36;10.90;;;1.90;;
50319;SDS011;36226;53.464;9.852;2022-08-01T10:17:01;11.05;;;2.10;;
50319;SDS011;36226;53.464;9.852;2022-08-01T10:19:27;9.70;;;2.40;;
50319;SDS011;36226;53.464;9.852;2022-08-01T10:21:55;8.77;;;2.08;;
50319;SDS011;36226;53.464;9.852;2022-08-01T10:24:21;8.38;;;1.65;;
50319;SDS011;36226;53.464;9.852;2022-08-01T10:26:48;9.80;;;1.75;;
50319;SDS011;36226;53.464;9.852;2022-08-01T10:29:17;8.85;;;1.70;;
50319;SDS011;36226;53.464;9.852;2022-08-01T10:31:44;7.93;;;1.63;;
50319;SDS011;36226;53.464;9.852;2022-08-01T10:34:10;9.05;;;1.67;;
50319;SDS011;36226;53.464;9.852;2022-08-01T10:36:36;8.70;;;1.60;;
50319;SDS011;36226;53.464;9.852;2022-08-01T10:39:04;4.40;;;1.42;;
50319;SDS011;36226;53.464;9.852;2022-08-01T10:41:32;6.45;;;1.83;;
50319;SDS011;36226;53.464;9.852;2022-08-01T10:43:58;6.32;;;1.40;;
50319;SDS011;36226;53.464;9.852;2022-08-01T10:46:25;9.98;;;1.63;;
50319;SDS011;36226;53.464;9.852;2022-08-01T10:51:27;4.63;;;1.50;;
50319;SDS011;36226;53.464;9.852;2022-08-01T10:53:54;7.05;;;1.50;;
50319;SDS011;36226;53.464;9.852;2022-08-01T10:56:20;4.57;;;1.67;;
50319;SDS011;36226;53.464;9.852;2022-08-01T10:58:48;10.05;;;2.03;;
50319;SDS011;36226;53.464;9.852;2022-08-01T11:03:40;10.38;;;1.40;;
50319;SDS011;36226;53.464;9.852;2022-08-01T11:06:06;8.70;;;1.40;;
50319;SDS011;36226;53.464;9.852;2022-08-01T11:08:31;6.18;;;1.52;;
50319;SDS011;36226;53.464;9.852;2022-08-01T11:11:01;7.57;;;1.52;;
50319;SDS011;36226;53.464;9.852;2022-08-01T11:16:26;5.78;;;1.50;;
50319;SDS011;36226;53.464;9.852;2022-08-01T11:18:53;8.57;;;1.20;;
50319;SDS011;36226;53.464;9.852;2022-08-01T11:21:18;6.20;;;1.40;;
50319;SDS011;36226;53.464;9.852;2022-08-01T11:23:47;5.82;;;1.48;;
50319;SDS011;36226;53.464;9.852;2022-08-01T11:26:14;5.60;;;1.27;;
50319;SDS011;36226;53.464;9.852;2022-08-01T11:28:40;7.68;;;1.58;;
50319;SDS011;36226;53.464;9.852;2022-08-01T11:38:47;4.90;;;1.23;;
50319;SDS011;36226;53.464;9.852;2022-08-01T11:41:23;4.85;;;1.13;;
50319;SDS011;36226;53.464;9.852;2022-08-01T11:43:56;6.22;;;1.17;;
50319;SDS011;36226;53.464;9.852;2022-08-01T11:49:47;7.85;;;1.30;;
50319;SDS011;36226;53.464;9.852;2022-08-01T11:54:34;6.93;;;1.42;;
50319;SDS011;36226;53.464;9.852;2022-08-01T11:57:14;8.93;;;1.40;;
50319;SDS011;36226;53.464;9.852;2022-08-01T11:59:45;8.70;;;1.38;;
50319;SDS011;36226;53.464;9.852;2022-08-01T12:02:20;4.50;;;1.02;;
50319;SDS011;36226;53.464;9.852;2022-08-01T12:04:54;9.27;;;1.55;;
50319;SDS011;36226;53.464;9.852;2022-08-01T12:07:21;7.68;;;1.67;;
50319;SDS011;36226;53.464;9.852;2022-08-01T12:09:47;6.43;;;1.70;;
50319;SDS011;36226;53.464;9.852;2022-08-01T12:12:16;2.92;;;1.00;;
50319;SDS011;36226;53.464;9.852;2022-08-01T12:14:42;9.90;;;1.33;;
50319;SDS011;36226;53.464;9.852;2022-08-01T12:17:08;5.70;;;1.20;;
50319;SDS011;36226;53.464;9.852;2022-08-01T12:19:33;7.55;;;1.30;;
50319;SDS011;36226;53.464;9.852;2022-08-01T12:22:04;3.38;;;0.80;;
50319;SDS011;36226;53.464;9.852;2022-08-01T12:24:40;4.68;;;1.10;;
50319;SDS011;36226;53.464;9.852;2022-08-01T12:27:06;5.63;;;1.20;;
50319;SDS011;36226;53.464;9.852;2022-08-01T12:32:03;5.82;;;1.15;;
50319;SDS011;36226;53.464;9.852;2022-08-01T12:34:28;11.18;;;1.63;;
50319;SDS011;36226;53.464;9.852;2022-08-01T12:36:58;6.72;;;1.23;;
50319;SDS011;36226;53.464;9.852;2022-08-01T12:39:33;5.75;;;1.30;;
50319;SDS011;36226;53.464;9.852;2022-08-01T12:41:59;7.17;;;1.17;;
50319;SDS011;36226;53.464;9.852;2022-08-01T12:44:26;6.18;;;1.10;;
50319;SDS011;36226;53.464;9.852;2022-08-01T12:46:52;6.63;;;1.40;;
50319;SDS011;36226;53.464;9.852;2022-08-01T12:49:18;4.68;;;0.88;;
50319;SDS011;36226;53.464;9.852;2022-08-01T12:51:43;4.60;;;0.90;;
50319;SDS011;36226;53.464;9.852;2022-08-01T12:54:09;4.90;;;1.23;;
50319;SDS011;36226;53.464;9.852;2022-08-01T12:56:35;4.72;;;0.98;;
50319;SDS011;36226;53.464;9.852;2022-08-01T12:59:00;5.93;;;1.60;;
50319;SDS011;36226;53.464;9.852;2022-08-01T13:01:26;6.47;;;1.08;;
50319;SDS011;36226;53.464;9.852;2022-08-01T13:04:01;4.85;;;1.00;;
50319;SDS011;36226;53.464;9.852;2022-08-01T13:06:30;3.20;;;1.10;;
50319;SDS011;36226;53.464;9.852;2022-08-01T13:09:15;3.65;;;1.00;;
50319;SDS011;36226;53.464;9.852;2022-08-01T13:11:40;6.00;;;1.75;;
50319;SDS011;36226;53.464;9.852;2022-08-01T13:14:06;6.63;;;1.13;;
50319;SDS011;36226;53.464;9.852;2022-08-01T13:16:32;3.97;;;1.10;;
50319;SDS011;36226;53.464;9.852;2022-08-01T13:18:57;2.42;;;1.02;;
50319;SDS011;36226;53.464;9.852;2022-08-01T13:21:26;5.07;;;1.17;;
50319;SDS011;36226;53.464;9.852;2022-08-01T13:24:03;6.85;;;1.48;;
50319;SDS011;36226;53.464;9.852;2022-08-01T13:26:45;4.63;;;1.10;;
50319;SDS011;36226;53.464;9.852;2022-08-01T13:29:21;9.65;;;1.38;;
50319;SDS011;36226;53.464;9.852;2022-08-01T13:31:54;6.72;;;0.95;;
50319;SDS011;36226;53.464;9.852;2022-08-01T13:34:29;8.15;;;1.17;;
50319;SDS011;36226;53.464;9.852;2022-08-01T13:36:58;5.63;;;0.90;;
50319;SDS011;36226;53.464;9.852;2022-08-01T13:39:23;5.32;;;1.33;;
50319;SDS011;36226;53.464;9.852;2022-08-01T13:42:08;5.22;;;1.15;;
50319;SDS011;36226;53.464;9.852;2022-08-01T13:44:33;7.43;;;1.08;;
50319;SDS011;36226;53.464;9.852;2022-08-01T13:46:58;6.97;;;1.15;;
50319;SDS011;36226;53.464;9.852;2022-08-01T13:49:24;6.68;;;1.05;;
50319;SDS011;36226;53.464;9.852;2022-08-01T13:51:49;4.57;;;0.98;;
50319;SDS011;36226;53.464;9.852;2022-08-01T13:54:15;5.70;;;1.20;;
50319;SDS011;36226;53.464;9.852;2022-08-01T13:56:41;4.97;;;1.02;;
50319;SDS011;36226;53.464;9.852;2022-08-01T13:59:06;3.90;;;1.30;;
50319;SDS011;36226;53.464;9.852;2022-08-01T14:01:31;5.32;;;1.00;;
50319;SDS011;36226;53.464;9.852;2022-08-01T14:03:57;5.45;;;1.08;;
50319;SDS011;36226;53.464;9.852;2022-08-01T14:06:22;6.72;;;1.00;;
50319;SDS011;36226;53.464;9.852;2022-08-01T14:08:48;4.25;;;0.88;;
50319;SDS011;36226;53.464;9.852;2022-08-01T14:11:14;6.43;;;1.23;;
50319;SDS011;36226;53.464;9.852;2022-08-01T14:13:39;4.82;;;1.20;;
50319;SDS011;36226;53.464;9.852;2022-08-01T14:16:05;2.78;;;0.95;;
50319;SDS011;36226;53.464;9.852;2022-08-01T14:18:31;9.00;;;1.17;;
50319;SDS011;36226;53.464;9.852;2022-08-01T14:20:56;5.63;;;0.90;;
50319;SDS011;36226;53.464;9.852;2022-08-01T14:23:22;6.53;;;1.20;;
50319;SDS011;36226;53.464;9.852;2022-08-01T14:25:47;4.28;;;1.02;;
50319;SDS011;36226;53.464;9.852;2022-08-01T14:28:12;5.63;;;0.90;;
50319;SDS011;36226;53.464;9.852;2022-08-01T14:30:38;4.03;;;1.20;;
50319;SDS011;36226;53.464;9.852;2022-08-01T14:33:03;4.53;;;0.98;;
50319;SDS011;36226;53.464;9.852;2022-08-01T14:35:28;7.97;;;1.50;;
50319;SDS011;36226;53.464;9.852;2022-08-01T14:37:54;6.63;;;1.00;;
50319;SDS011;36226;53.464;9.852;2022-08-01T14:40:19;7.45;;;0.93;;
50319;SDS011;36226;53.464;9.852;2022-08-01T14:42:44;8.70;;;1.02;;
50319;SDS011;36226;53.464;9.852;2022-08-01T14:45:11;6.05;;;1.00;;
50319;SDS011;36226;53.464;9.852;2022-08-01T14:47:37;4.90;;;1.00;;
50319;SDS011;36226;53.464;9.852;2022-08-01T14:50:07;6.20;;;1.25;;
50319;SDS011;36226;53.464;9.852;2022-08-01T14:52:34;7.53;;;1.40;;
50319;SDS011;36226;53.464;9.852;2022-08-01T14:55:00;6.00;;;1.02;;
50319;SDS011;36226;53.464;9.852;2022-08-01T14:57:27;6.70;;;1.23;;
50319;SDS011;36226;53.464;9.852;2022-08-01T14:59:52;3.97;;;0.80;;
50319;SDS011;36226;53.464;9.852;2022-08-01T15:02:18;4.82;;;1.10;;
50319;SDS011;36226;53.464;9.852;2022-08-01T15:04:46;3.53;;;0.98;;
50319;SDS011;36226;53.464;9.852;2022-08-01T15:07:13;6.07;;;1.00;;
50319;SDS011;36226;53.464;9.852;2022-08-01T15:09:42;7.47;;;1.20;;
50319;SDS011;36226;53.464;9.852;2022-08-01T15:12:25;6.88;;;0.98;;
50319;SDS011;36226;53.464;9.852;2022-08-01T15:14:51;3.70;;;0.85;;
50319;SDS011;36226;53.464;9.852;2022-08-01T15:19:50;5.32;;;1.00;;